createdAt,value
2022-10-09T00:00:09.330Z,7.63
2022-10-09T00:03:14.122Z,7.70
2022-10-09T00:06:42.147Z,8.13
2022-10-09T00:09:43.814Z,7.73
2022-10-09T00:12:45.611Z,8.40
2022-10-09T00:15:47.527Z,7.70
2022-10-09T00:18:49.254Z,8.00
2022-10-09T00:21:50.841Z,7.10
2022-10-09T00:24:52.397Z,7.63
2022-10-09T00:27:53.958Z,8.00
2022-10-09T00:30:55.709Z,8.10
2022-10-09T00:33:57.365Z,7.90
2022-10-09T00:36:58.909Z,8.00
2022-10-09T00:40:00.734Z,7.37
2022-10-09T00:43:02.491Z,7.80
2022-10-09T00:46:04.350Z,8.10
2022-10-09T00:49:12.159Z,8.33
2022-10-09T00:52:13.880Z,8.73
2022-10-09T00:55:15.696Z,8.43
2022-10-09T00:58:17.333Z,8.17
2022-10-09T01:01:18.954Z,8.50
2022-10-09T01:04:20.627Z,8.07
2022-10-09T01:07:31.656Z,8.10
2022-10-09T01:10:49.406Z,8.70
2022-10-09T01:14:09.641Z,8.10
2022-10-09T01:17:17.245Z,8.13
2022-10-09T01:20:19.089Z,7.83
2022-10-09T01:23:23.902Z,7.30
2022-10-09T01:26:44.005Z,8.13
2022-10-09T01:30:05.791Z,8.03
2022-10-09T01:33:07.874Z,8.33
2022-10-09T01:36:09.989Z,8.03
2022-10-09T01:39:13.960Z,7.83
2022-10-09T01:42:15.840Z,8.30
2022-10-09T01:45:17.423Z,8.53
2022-10-09T01:48:23.367Z,7.93
2022-10-09T01:51:27.665Z,8.37
2022-10-09T01:54:41.461Z,8.20
2022-10-09T01:57:51.174Z,8.00
2022-10-09T02:01:04.826Z,8.10
2022-10-09T02:04:08.383Z,8.37
2022-10-09T02:07:10.178Z,8.13
2022-10-09T02:10:11.817Z,8.20
2022-10-09T02:13:17.938Z,8.50
2022-10-09T02:16:24.681Z,8.90
2022-10-09T02:19:30.283Z,8.43
2022-10-09T02:22:32.416Z,8.27
2022-10-09T02:25:34.705Z,8.10
2022-10-09T02:28:36.797Z,8.70
2022-10-09T02:31:39.073Z,8.83
2022-10-09T02:34:40.746Z,8.90
2022-10-09T02:37:42.278Z,8.40
2022-10-09T02:40:43.891Z,8.30
2022-10-09T02:43:45.513Z,8.60
2022-10-09T02:46:47.130Z,8.20
2022-10-09T02:49:48.806Z,8.70
2022-10-09T02:52:50.537Z,8.67
2022-10-09T02:55:52.267Z,8.90
2022-10-09T02:58:54.225Z,8.67
2022-10-09T03:01:55.951Z,9.17
2022-10-09T03:04:57.582Z,8.90
2022-10-09T03:07:59.175Z,8.57
2022-10-09T03:11:00.809Z,9.10
2022-10-09T03:14:02.408Z,8.83
2022-10-09T03:17:04.047Z,9.07
2022-10-09T03:20:06.489Z,8.20
2022-10-09T03:23:08.065Z,8.60
2022-10-09T03:26:13.768Z,8.90
2022-10-09T03:29:15.368Z,9.40
2022-10-09T03:32:16.995Z,8.90
2022-10-09T03:35:18.564Z,9.20
2022-10-09T03:38:20.154Z,9.10
2022-10-09T03:41:21.752Z,9.00
2022-10-09T03:44:23.298Z,9.30
2022-10-09T03:47:24.867Z,9.30
2022-10-09T03:50:26.472Z,9.83
2022-10-09T03:53:28.213Z,9.50
2022-10-09T03:56:29.923Z,9.97
2022-10-09T03:59:31.503Z,9.83
2022-10-09T04:02:33.892Z,9.83
2022-10-09T04:05:36.073Z,10.33
2022-10-09T04:08:37.637Z,10.03
2022-10-09T04:11:39.373Z,10.80
2022-10-09T04:14:41.092Z,10.10
2022-10-09T04:17:42.759Z,11.00
2022-10-09T04:20:44.944Z,9.93
2022-10-09T04:23:46.536Z,10.60
2022-10-09T04:26:48.104Z,10.87
2022-10-09T04:29:49.708Z,11.00
2022-10-09T04:32:51.657Z,10.70
2022-10-09T04:35:54.136Z,10.93
2022-10-09T04:38:55.794Z,11.83
2022-10-09T04:41:57.430Z,12.17
2022-10-09T04:44:59.175Z,12.90
2022-10-09T04:48:00.801Z,11.13
2022-10-09T04:51:04.098Z,11.50
2022-10-09T04:54:05.711Z,10.73
2022-10-09T04:57:07.341Z,10.20
2022-10-09T05:00:09.341Z,9.93
2022-10-09T05:03:11.318Z,10.70
2022-10-09T05:06:13.792Z,11.43
2022-10-09T05:09:15.351Z,12.97
2022-10-09T05:12:16.984Z,11.63
2022-10-09T05:15:19.679Z,12.20
2022-10-09T05:18:21.558Z,11.53
2022-10-09T05:21:27.007Z,13.00
2022-10-09T05:24:34.261Z,12.03
2022-10-09T05:27:36.245Z,11.80
2022-10-09T05:30:40.650Z,11.53
2022-10-09T05:33:42.206Z,11.10
2022-10-09T05:36:43.858Z,11.47
2022-10-09T05:39:45.491Z,11.27
2022-10-09T05:42:49.325Z,9.93
2022-10-09T05:45:51.294Z,9.30
2022-10-09T05:48:53.852Z,9.20
2022-10-09T05:51:56.087Z,8.90
2022-10-09T05:54:57.675Z,9.03
2022-10-09T05:57:59.239Z,8.93
2022-10-09T06:01:00.974Z,9.00
2022-10-09T06:04:03.367Z,9.27
2022-10-09T06:07:05.184Z,9.47
2022-10-09T06:10:06.982Z,9.03
2022-10-09T06:13:08.539Z,9.33
2022-10-09T06:16:11.809Z,8.83
2022-10-09T06:19:15.054Z,9.37
2022-10-09T06:22:16.733Z,8.70
2022-10-09T06:25:18.374Z,8.73
2022-10-09T06:28:20.023Z,8.60
2022-10-09T06:31:23.343Z,8.53
2022-10-09T06:34:25.088Z,8.17
2022-10-09T06:37:26.624Z,8.10
2022-10-09T06:40:28.231Z,7.63
2022-10-09T06:43:31.065Z,7.50
2022-10-09T06:46:34.402Z,7.13
2022-10-09T06:49:36.080Z,7.30
2022-10-09T06:52:37.679Z,7.87
2022-10-09T06:55:39.269Z,8.60
2022-10-09T06:58:40.904Z,6.80
2022-10-09T07:01:42.722Z,6.90
2022-10-09T07:04:44.354Z,6.70
2022-10-09T07:07:46.015Z,6.47
2022-10-09T07:10:47.576Z,6.73
2022-10-09T07:13:50.588Z,5.73
2022-10-09T07:16:52.405Z,5.73
2022-10-09T07:19:53.985Z,6.90
2022-10-09T07:22:55.554Z,5.87
2022-10-09T07:25:57.580Z,5.82
2022-10-09T07:28:59.267Z,8.63
2022-10-09T07:32:00.814Z,5.90
2022-10-09T07:35:02.364Z,5.88
2022-10-09T07:38:04.389Z,5.95
2022-10-09T07:41:07.337Z,5.00
2022-10-09T07:44:10.253Z,5.38
2022-10-09T07:47:11.851Z,5.03
2022-10-09T07:50:13.532Z,5.93
2022-10-09T07:53:15.094Z,5.07
2022-10-09T07:56:19.443Z,4.78
2022-10-09T07:59:21.042Z,5.05
2022-10-09T08:02:22.626Z,4.28
2022-10-09T08:05:24.300Z,4.40
2022-10-09T08:08:26.072Z,3.47
2022-10-09T08:11:28.814Z,3.42
2022-10-09T08:14:30.408Z,4.70
2022-10-09T08:17:32.012Z,10.30
2022-10-09T08:20:33.540Z,4.13
2022-10-09T08:23:35.407Z,4.45
2022-10-09T08:26:36.992Z,4.05
2022-10-09T08:29:40.389Z,4.53
2022-10-09T08:32:42.089Z,3.90
2022-10-09T08:35:43.611Z,3.92
2022-10-09T08:38:47.938Z,4.22
2022-10-09T08:41:51.932Z,4.65
2022-10-09T08:44:53.529Z,4.60
2022-10-09T08:47:57.635Z,5.07
2022-10-09T08:50:59.790Z,4.68
2022-10-09T08:54:11.596Z,4.60
2022-10-09T08:57:14.549Z,4.70
2022-10-09T09:00:17.258Z,4.97
2022-10-09T09:03:28.703Z,4.55
2022-10-09T09:06:42.168Z,5.03
2022-10-09T09:09:46.815Z,4.82
2022-10-09T09:12:50.835Z,5.10
2022-10-09T09:15:59.258Z,4.45
2022-10-09T09:19:17.371Z,4.13
2022-10-09T09:22:19.219Z,4.55
2022-10-09T09:25:23.566Z,4.55
2022-10-09T09:28:34.017Z,4.93
2022-10-09T09:31:37.273Z,4.80
2022-10-09T09:34:40.662Z,4.57
2022-10-09T09:37:42.259Z,4.63
2022-10-09T09:40:47.321Z,10.70
2022-10-09T09:43:49.161Z,4.80
2022-10-09T09:46:50.935Z,5.10
2022-10-09T09:49:56.375Z,4.87
2022-10-09T09:53:01.025Z,4.47
2022-10-09T09:56:02.660Z,4.10
2022-10-09T09:59:04.753Z,4.70
2022-10-09T10:02:06.354Z,3.83
2022-10-09T10:05:20.756Z,4.40
2022-10-09T10:08:25.532Z,5.00
2022-10-09T10:11:27.240Z,4.60
2022-10-09T10:14:29.367Z,4.30
2022-10-09T10:17:32.424Z,4.47
2022-10-09T10:20:42.209Z,4.10
2022-10-09T10:23:51.127Z,4.40
2022-10-09T10:26:55.912Z,4.10
2022-10-09T10:30:02.192Z,4.40
2022-10-09T10:33:17.619Z,5.33
2022-10-09T10:36:19.714Z,4.30
2022-10-09T10:39:26.954Z,4.50
2022-10-09T10:42:35.794Z,5.30
2022-10-09T10:45:49.694Z,4.77
2022-10-09T10:48:52.209Z,4.17
2022-10-09T10:52:17.930Z,4.17
2022-10-09T10:55:19.520Z,4.37
2022-10-09T10:58:27.447Z,4.17
2022-10-09T11:01:44.440Z,4.97
2022-10-09T11:04:46.000Z,5.00
2022-10-09T11:07:50.394Z,4.20
2022-10-09T11:11:10.716Z,4.40
2022-10-09T11:14:30.847Z,4.87
2022-10-09T11:17:35.273Z,4.40
2022-10-09T11:20:55.528Z,4.20
2022-10-09T11:23:59.948Z,3.87
2022-10-09T11:27:09.096Z,4.57
2022-10-09T11:30:11.775Z,4.47
2022-10-09T11:33:36.881Z,3.73
2022-10-09T11:36:42.319Z,5.00
2022-10-09T11:39:44.258Z,4.80
2022-10-09T11:42:47.998Z,4.47
2022-10-09T11:46:09.898Z,4.60
2022-10-09T11:49:34.606Z,4.60
2022-10-09T11:52:42.567Z,4.20
2022-10-09T11:55:44.530Z,4.40
2022-10-09T11:59:06.484Z,4.13
2022-10-09T12:02:27.912Z,3.67
2022-10-09T12:05:29.453Z,4.30
2022-10-09T12:08:31.140Z,3.60
2022-10-09T12:11:33.263Z,3.80
2022-10-09T12:14:37.188Z,4.03
2022-10-09T12:17:47.630Z,4.60
2022-10-09T12:20:53.335Z,3.90
2022-10-09T12:23:55.187Z,4.00
2022-10-09T12:26:59.748Z,3.87
2022-10-09T12:30:14.230Z,4.47
2022-10-09T12:33:22.730Z,4.73
2022-10-09T12:36:25.624Z,4.40
2022-10-09T12:39:27.158Z,4.30
2022-10-09T12:42:28.713Z,4.07
2022-10-09T12:45:31.252Z,4.03
2022-10-09T12:48:36.906Z,4.27
2022-10-09T12:51:39.846Z,4.30
2022-10-09T12:54:42.528Z,3.83
2022-10-09T12:57:44.394Z,4.37
2022-10-09T13:00:50.247Z,4.10
2022-10-09T13:03:54.890Z,4.30
2022-10-09T13:06:57.597Z,3.70
2022-10-09T13:10:04.614Z,3.90
2022-10-09T13:13:06.164Z,3.90
2022-10-09T13:16:09.687Z,4.27
2022-10-09T13:19:27.929Z,5.07
2022-10-09T13:22:33.617Z,4.73
2022-10-09T13:25:41.715Z,4.57
2022-10-09T13:28:43.861Z,5.07
2022-10-09T13:31:45.609Z,4.93
2022-10-09T13:34:47.475Z,4.40
2022-10-09T13:37:49.403Z,4.50
2022-10-09T13:40:51.274Z,4.33
2022-10-09T13:43:53.140Z,4.60
2022-10-09T13:46:54.799Z,4.77
2022-10-09T13:49:59.611Z,4.73
2022-10-09T13:53:01.382Z,4.30
2022-10-09T13:56:03.860Z,6.97
2022-10-09T13:59:05.430Z,4.07
2022-10-09T14:02:07.312Z,4.20
2022-10-09T14:05:08.967Z,3.97
2022-10-09T14:08:11.409Z,3.70
2022-10-09T14:11:13.175Z,3.67
2022-10-09T14:14:14.827Z,3.73
2022-10-09T14:17:16.663Z,4.33
2022-10-09T14:20:18.380Z,4.17
2022-10-09T14:23:19.968Z,4.10
2022-10-09T14:26:21.633Z,4.57
2022-10-09T14:29:23.368Z,4.57
2022-10-09T14:32:25.041Z,4.57
2022-10-09T14:35:26.618Z,4.13
2022-10-09T14:38:28.244Z,4.27
2022-10-09T14:41:33.196Z,4.10
2022-10-09T14:44:37.162Z,4.70
2022-10-09T14:47:38.727Z,4.17
2022-10-09T14:50:40.443Z,4.70
2022-10-09T14:53:42.030Z,4.60
2022-10-09T14:56:43.710Z,4.97
2022-10-09T14:59:45.307Z,4.40
2022-10-09T15:02:46.880Z,4.90
2022-10-09T15:05:48.458Z,4.57
2022-10-09T15:08:51.090Z,5.00
2022-10-09T15:11:52.678Z,6.30
2022-10-09T15:14:54.400Z,5.70
2022-10-09T15:17:55.995Z,6.40
2022-10-09T15:21:00.240Z,6.03
2022-10-09T15:24:02.349Z,6.07
2022-10-09T15:27:04.165Z,6.50
2022-10-09T15:30:07.302Z,6.70
2022-10-09T15:33:08.942Z,11.60
2022-10-09T15:36:10.525Z,8.87
2022-10-09T15:39:13.100Z,10.17
2022-10-09T15:42:14.720Z,10.50
2022-10-09T15:45:16.347Z,8.27
2022-10-09T15:48:19.163Z,8.50
2022-10-09T15:51:21.354Z,7.40
2022-10-09T15:54:23.224Z,7.73
2022-10-09T15:57:24.862Z,7.67
2022-10-09T16:00:26.430Z,8.93
2022-10-09T16:03:29.094Z,7.03
2022-10-09T16:06:30.644Z,8.90
2022-10-09T16:09:34.184Z,10.30
2022-10-09T16:12:35.735Z,13.50
2022-10-09T16:15:43.579Z,11.27
2022-10-09T16:18:45.382Z,13.20
2022-10-09T16:21:48.393Z,11.63
2022-10-09T16:24:50.004Z,12.20
2022-10-09T16:27:51.602Z,15.20
2022-10-09T16:30:54.596Z,14.10
2022-10-09T16:33:56.483Z,13.20
2022-10-09T16:37:01.958Z,12.50
2022-10-09T16:40:03.830Z,13.23
2022-10-09T16:43:05.521Z,13.17
2022-10-09T16:46:10.142Z,12.57
2022-10-09T16:49:19.998Z,14.60
2022-10-09T16:52:24.382Z,13.57
2022-10-09T16:55:27.441Z,15.07
2022-10-09T16:58:29.044Z,18.20
2022-10-09T17:01:31.079Z,18.20
2022-10-09T17:04:32.759Z,17.00
2022-10-09T17:07:34.372Z,16.03
2022-10-09T17:10:41.029Z,14.87
2022-10-09T17:13:43.364Z,14.13
2022-10-09T17:16:45.070Z,12.90
2022-10-09T17:19:46.739Z,13.87
2022-10-09T17:22:48.878Z,12.13
2022-10-09T17:25:50.893Z,12.83
2022-10-09T17:28:53.257Z,11.37
2022-10-09T17:31:54.864Z,11.63
2022-10-09T17:34:56.516Z,11.20
2022-10-09T17:37:58.120Z,10.50
2022-10-09T17:40:59.823Z,10.67
2022-10-09T17:44:01.516Z,10.73
2022-10-09T17:47:03.469Z,9.40
2022-10-09T17:50:05.422Z,9.10
2022-10-09T17:53:07.250Z,10.73
2022-10-09T17:56:09.223Z,9.07
2022-10-09T17:59:11.102Z,8.83
2022-10-09T18:02:12.785Z,8.37
2022-10-09T18:05:14.402Z,8.40
2022-10-09T18:08:17.101Z,9.20
2022-10-09T18:11:19.310Z,8.57
2022-10-09T18:14:20.953Z,8.90
2022-10-09T18:17:22.704Z,9.07
2022-10-09T18:20:24.396Z,9.60
2022-10-09T18:23:26.012Z,9.93
2022-10-09T18:26:27.762Z,9.27
2022-10-09T18:29:29.389Z,10.10
2022-10-09T18:32:31.063Z,11.80
2022-10-09T18:35:35.380Z,7.87
2022-10-09T18:38:37.110Z,10.80
2022-10-09T18:41:38.891Z,8.93
2022-10-09T18:44:42.927Z,8.97
2022-10-09T18:47:44.947Z,9.43
2022-10-09T18:50:46.730Z,8.53
2022-10-09T18:53:50.925Z,9.70
2022-10-09T18:56:52.857Z,9.13
2022-10-09T18:59:55.540Z,8.23
2022-10-09T19:02:57.160Z,8.03
2022-10-09T19:05:58.794Z,9.07
2022-10-09T19:09:03.045Z,8.50
2022-10-09T19:12:04.733Z,8.83
2022-10-09T19:15:11.703Z,9.33
2022-10-09T19:18:14.368Z,8.87
2022-10-09T19:21:16.040Z,8.73
2022-10-09T19:24:17.633Z,8.90
2022-10-09T19:27:21.578Z,8.77
2022-10-09T19:30:25.059Z,8.57
2022-10-09T19:33:26.639Z,9.13
2022-10-09T19:36:28.448Z,8.83
2022-10-09T19:39:30.066Z,8.80
2022-10-09T19:42:31.669Z,9.13
2022-10-09T19:45:33.246Z,8.33
2022-10-09T19:48:35.298Z,9.00
2022-10-09T19:51:36.913Z,9.50
2022-10-09T19:54:40.072Z,9.70
2022-10-09T19:57:41.701Z,9.50
2022-10-09T20:00:43.698Z,9.50
2022-10-09T20:03:45.701Z,8.67
2022-10-09T20:06:48.420Z,8.87
2022-10-09T20:09:50.064Z,8.50
2022-10-09T20:12:51.933Z,9.53
2022-10-09T20:15:53.968Z,8.67
2022-10-09T20:18:56.247Z,9.80
2022-10-09T20:21:58.107Z,8.70
2022-10-09T20:24:59.653Z,9.07
2022-10-09T20:28:01.198Z,8.73
2022-10-09T20:31:07.918Z,8.80
2022-10-09T20:34:09.558Z,9.07
2022-10-09T20:37:11.201Z,9.77
2022-10-09T20:40:12.936Z,8.60
2022-10-09T20:43:14.588Z,8.80
2022-10-09T20:46:16.218Z,8.47
2022-10-09T20:49:18.226Z,8.80
2022-10-09T20:52:19.907Z,8.70
2022-10-09T20:55:21.475Z,8.13
2022-10-09T20:58:23.042Z,8.37
2022-10-09T21:01:24.972Z,8.23
2022-10-09T21:04:26.592Z,8.43
2022-10-09T21:07:28.167Z,8.70
2022-10-09T21:10:29.714Z,8.40
2022-10-09T21:13:31.376Z,8.57
2022-10-09T21:16:33.109Z,8.33
2022-10-09T21:19:34.713Z,8.80
2022-10-09T21:22:36.275Z,8.27
2022-10-09T21:25:38.386Z,9.23
2022-10-09T21:28:40.515Z,8.73
2022-10-09T21:31:42.231Z,8.83
2022-10-09T21:34:43.824Z,8.90
2022-10-09T21:37:45.432Z,10.13
2022-10-09T21:40:47.728Z,8.67
2022-10-09T21:43:49.286Z,8.23
2022-10-09T21:46:50.929Z,8.47
2022-10-09T21:49:52.603Z,8.63
2022-10-09T21:52:54.193Z,8.60
2022-10-09T21:55:55.758Z,10.47
2022-10-09T21:58:57.430Z,10.30
2022-10-09T22:01:58.997Z,10.73
2022-10-09T22:05:00.645Z,12.30
2022-10-09T22:08:02.185Z,12.47
2022-10-09T22:11:07.451Z,11.17
2022-10-09T22:14:09.011Z,10.17
2022-10-09T22:17:10.673Z,9.23
2022-10-09T22:20:13.122Z,15.00
2022-10-09T22:23:15.019Z,13.70
2022-10-09T22:26:18.037Z,9.10
2022-10-09T22:29:19.611Z,9.30
2022-10-09T22:32:21.184Z,10.17
2022-10-09T22:35:22.968Z,9.47
2022-10-09T22:38:24.517Z,9.37
2022-10-09T22:41:26.891Z,8.80
2022-10-09T22:44:28.476Z,9.20
2022-10-09T22:47:30.104Z,8.87
2022-10-09T22:50:31.711Z,8.70
2022-10-09T22:53:33.716Z,9.10
2022-10-09T22:56:39.161Z,9.00
2022-10-09T22:59:40.776Z,9.00
2022-10-09T23:02:42.310Z,8.83
2022-10-09T23:05:43.934Z,8.67
2022-10-09T23:08:46.599Z,10.67
2022-10-09T23:11:48.200Z,9.87
2022-10-09T23:14:49.820Z,9.10
2022-10-09T23:17:51.381Z,9.83
2022-10-09T23:20:52.957Z,8.80
2022-10-09T23:23:54.590Z,9.87
2022-10-09T23:26:56.077Z,10.00
2022-10-09T23:29:57.729Z,9.83
2022-10-09T23:32:59.332Z,10.07
2022-10-09T23:36:03.822Z,10.03
2022-10-09T23:39:06.146Z,10.63
2022-10-09T23:42:07.763Z,10.53
2022-10-09T23:45:09.734Z,11.57
2022-10-09T23:48:11.338Z,11.83
2022-10-09T23:51:14.124Z,10.83
2022-10-09T23:54:15.763Z,9.30
2022-10-09T23:57:17.349Z,10.40
